Time;durP1;ratioP1;P1;durP2;ratioP2;P2;SDS_P1;SDS_P2;PMS_P1;PMS_P2;Temp;Humidity;BMP_temperature;BMP_pressure;BME280_temperature;BME280_humidity;BME280_pressure;Samples;Min_cycle;Max_cycle;Signal;HPM_P1;HPM_P2
2024/02/23 00:01:06;;;;;;;33.60;16.00;;;;;;;-147.86;100.00;18604.48;105717;1259;60585;-56
2024/02/23 00:03:37;;;;;;;27.60;14.80;;;;;;;-147.86;100.00;18611.47;105685;1260;60390;-57
2024/02/23 00:06:04;;;;;;;29.60;16.30;;;;;;;-147.86;100.00;18652.29;105645;1254;72552;-57
2024/02/23 00:08:32;;;;;;;28.70;16.30;;;;;;;-147.86;100.00;18605.20;105677;1259;63096;-57
2024/02/23 00:11:00;;;;;;;33.30;16.40;;;;;;;-147.86;100.00;18636.71;105665;1259;71469;-56
2024/02/23 00:13:29;;;;;;;32.60;16.20;;;;;;;-147.86;100.00;18769.42;105671;1259;60555;-54
2024/02/23 00:15:57;;;;;;;25.40;15.10;;;;;;;-147.86;100.00;18934.06;105694;1254;60424;-56
2024/02/23 00:18:25;;;;;;;35.60;17.10;;;;;;;-147.86;100.00;19197.95;105696;1254;73943;-56
2024/02/23 00:20:53;;;;;;;27.10;16.00;;;;;;;-147.86;100.00;19519.10;105725;1254;63482;-57
2024/02/23 00:23:20;;;;;;;32.40;16.80;;;;;;;-147.86;100.00;19736.69;105628;1254;72618;-52
2024/02/23 00:25:48;;;;;;;33.40;16.90;;;;;;;-147.86;100.00;20165.29;105657;1259;60466;-55
2024/02/23 00:28:16;;;;;;;34.50;17.80;;;;;;;-147.86;100.00;20700.22;105761;1259;60808;-55
2024/02/23 00:30:44;;;;;;;31.20;17.60;;;;;;;-147.86;100.00;21061.95;105664;1259;71904;-56
2024/02/23 00:33:11;;;;;;;35.70;16.30;;;;;;;-147.86;100.00;21467.33;105725;1259;62379;-57
2024/02/23 00:35:39;;;;;;;32.40;17.40;;;;;;;-147.86;100.00;21957.23;105668;1257;71380;-56
2024/02/23 00:38:08;;;;;;;33.50;16.10;;;;;;;-147.86;100.00;22541.06;105674;1259;60553;-56
2024/02/23 00:40:35;;;;;;;28.40;16.40;;;;;;;-147.86;100.00;23150.73;105721;1254;60649;-55
2024/02/23 00:43:04;;;;;;;35.10;16.70;;;;;;;-147.86;100.00;23411.35;105689;1259;72843;-54
2024/02/23 00:45:31;;;;;;;33.80;16.60;;;;;;;-147.86;100.00;23963.83;105684;1260;63216;-58
2024/02/23 00:47:59;;;;;;;37.90;16.50;;;;;;;-147.86;100.00;24295.46;105635;1259;72685;-57
2024/02/23 00:50:28;;;;;;;30.80;16.40;;;;;;;-147.86;100.00;24661.02;105700;1254;60759;-54
2024/02/23 00:52:56;;;;;;;33.60;16.20;;;;;;;-147.86;100.00;24931.88;105749;1259;60439;-53
2024/02/23 00:55:26;;;;;;;33.50;15.60;;;;;;;-147.86;100.00;25208.60;105656;1254;72656;-54
2024/02/23 00:57:54;;;;;;;28.30;15.80;;;;;;;-147.86;100.00;32650.21;105643;1260;64370;-54
2024/02/23 01:00:21;;;;;;;34.10;17.50;;;;;;;-147.86;100.00;31753.71;105608;1260;72640;-54
2024/02/23 01:02:49;;;;;;;32.40;16.60;;;;;;;-147.86;100.00;30686.84;105629;1257;60492;-54
2024/02/23 01:05:17;;;;;;;33.40;15.50;;;;;;;-147.86;100.00;29699.44;105576;1255;60354;-53
2024/02/23 01:07:45;;;;;;;31.90;16.40;;;;;;;-147.86;100.00;28940.14;105473;1257;72547;-55
2024/02/23 01:10:13;;;;;;;35.00;16.00;;;;;;;-147.86;100.00;28645.19;105629;1261;63110;-56
2024/02/23 01:12:41;;;;;;;30.80;16.40;;;;;;;-147.86;100.00;28356.90;105640;1259;72609;-54
2024/02/23 01:15:09;;;;;;;33.90;16.70;;;;;;;-147.86;100.00;28301.12;105753;1260;60550;-52
2024/02/23 01:17:38;;;;;;;31.00;16.90;;;;;;;-147.86;100.00;28241.82;105678;1259;60409;-54
2024/02/23 01:20:07;;;;;;;28.60;16.10;;;;;;;-147.86;100.00;28189.60;105684;1255;73092;-51
2024/02/23 01:22:35;;;;;;;29.40;15.50;;;;;;;-147.86;100.00;28214.90;105640;1259;64587;-56
2024/02/23 01:25:03;;;;;;;29.40;16.30;;;;;;;-147.86;100.00;28175.49;105649;1259;71436;-55
2024/02/23 01:27:31;;;;;;;32.30;16.60;;;;;;;-147.86;100.00;28311.65;105637;1259;60849;-55
2024/02/23 02:00:33;;;;;;;31.00;14.80;;;;;;;-147.86;100.00;42037.99;102721;1291;600264;-52
2024/02/23 02:03:01;;;;;;;25.00;14.90;;;;;;;-147.86;100.00;32702.98;104878;1273;59734;-54
2024/02/23 02:05:29;;;;;;;29.70;15.40;;;;;;;-147.86;100.00;32458.48;105098;1269;59864;-54
2024/02/23 02:08:00;;;;;;;28.00;16.20;;;;;;;-147.86;100.00;32453.80;105052;1264;70693;-55
2024/02/23 02:10:28;;;;;;;29.30;15.30;;;;;;;-147.86;100.00;32451.47;105125;1264;63647;-57
2024/02/23 02:13:03;;;;;;;29.70;16.40;;;;;;;-147.86;100.00;32217.56;105022;1264;70658;-55
2024/02/23 02:15:31;;;;;;;22.90;12.00;;;;;;;-147.86;100.00;32204.71;105002;1266;61093;-54
2024/02/23 02:17:58;;;;;;;25.50;15.90;;;;;;;-147.86;100.00;31864.18;105215;1266;59328;-54
2024/02/23 02:20:26;;;;;;;29.10;17.10;;;;;;;-147.86;100.00;31654.53;105218;1264;70976;-52
2024/02/23 02:22:54;;;;;;;35.20;16.50;;;;;;;-147.86;100.00;31365.63;104853;1264;63096;-57
2024/02/23 02:25:22;;;;;;;34.70;18.10;;;;;;;-147.86;100.00;31155.99;105318;1261;71333;-53
2024/02/23 02:27:49;;;;;;;35.10;17.50;;;;;;;-147.86;100.00;31155.59;105328;1261;59729;-55
2024/02/23 02:30:17;;;;;;;30.60;16.50;;;;;;;-147.86;100.00;31118.11;105339;1258;59566;-54
2024/02/23 02:32:44;;;;;;;30.10;16.50;;;;;;;-147.86;100.00;30945.97;105362;1263;73031;-56
2024/02/23 02:35:12;;;;;;;32.30;16.70;;;;;;;-147.86;100.00;30699.67;105355;1260;63091;-55
2024/02/23 02:37:40;;;;;;;32.40;16.50;;;;;;;-147.86;100.00;30444.02;105349;1261;71896;-54
2024/02/23 02:40:09;;;;;;;35.80;15.60;;;;;;;-147.86;100.00;30127.10;105363;1259;59722;-54
2024/02/23 02:42:36;;;;;;;32.40;15.90;;;;;;;-147.86;100.00;29697.46;105393;1260;59653;-52
2024/02/23 02:45:04;;;;;;;27.60;16.00;;;;;;;-147.86;100.00;29138.29;105636;1258;71626;-56
2024/02/23 02:47:32;;;;;;;25.50;13.90;;;;;;;-147.86;100.00;28608.48;105648;1260;63084;-57
2024/02/23 02:50:00;;;;;;;26.80;14.80;;;;;;;-147.86;100.00;28239.03;105583;1260;71354;-54
2024/02/23 02:52:28;;;;;;;26.10;14.90;;;;;;;-147.86;100.00;27827.15;105627;1257;59736;-55
2024/02/23 02:54:56;;;;;;;26.90;15.50;;;;;;;-147.86;100.00;27321.68;105594;1255;59986;-55
2024/02/23 02:57:24;;;;;;;25.60;15.30;;;;;;;-147.86;100.00;26924.68;105557;1260;73100;-56
2024/02/23 02:59:52;;;;;;;26.00;15.10;;;;;;;-147.86;100.00;26618.20;105516;1258;64360;-53
2024/02/23 03:02:19;;;;;;;24.50;14.60;;;;;;;-147.86;100.00;26175.28;105581;1257;72106;-53
2024/02/23 03:04:48;;;;;;;24.20;15.40;;;;;;;-147.86;100.00;25667.70;105567;1258;59755;-55
2024/02/23 03:07:17;;;;;;;25.40;14.80;;;;;;;-147.86;100.00;25238.14;105551;1258;59820;-58
2024/02/23 03:09:45;;;;;;;28.00;14.90;;;;;;;-147.86;100.00;25152.03;105594;1263;71871;-55
2024/02/23 03:12:13;;;;;;;29.50;15.50;;;;;;;-147.86;100.00;25073.68;105502;1262;63509;-56
2024/02/23 03:14:41;;;;;;;27.90;15.20;;;;;;;-147.86;100.00;24109.52;105538;1258;71343;-51
2024/02/23 03:17:10;;;;;;;33.50;15.70;;;;;;;-147.86;100.00;23186.50;105591;1257;59658;-53
2024/02/23 03:19:38;;;;;;;30.10;16.20;;;;;;;-147.86;100.00;22405.09;105563;1257;60396;-57
2024/02/23 03:22:06;;;;;;;26.70;16.00;;;;;;;-147.86;100.00;21607.86;105574;1257;71721;-58
2024/02/23 03:24:34;;;;;;;35.10;16.40;;;;;;;-147.86;100.00;21144.45;105563;1261;64382;-54
2024/02/23 03:27:02;;;;;;;28.90;16.10;;;;;;;-147.86;100.00;20364.27;105555;1258;70445;-52
2024/02/23 03:29:30;;;;;;;43.70;17.90;;;;;;;-147.86;100.00;19651.91;105556;1257;59854;-55
2024/02/23 03:31:58;;;;;;;36.20;17.90;;;;;;;-147.86;100.00;19068.90;105611;1263;59609;-56
2024/02/23 03:34:26;;;;;;;40.10;17.50;;;;;;;-147.86;100.00;18405.82;105585;1258;71855;-54
2024/02/23 03:36:54;;;;;;;39.00;18.10;;;;;;;-147.86;100.00;17759.55;105537;1259;63146;-53
2024/02/23 03:39:22;;;;;;;37.90;18.10;;;;;;;-147.86;100.00;17172.14;105535;1263;72632;-55
2024/02/23 03:41:50;;;;;;;32.10;17.40;;;;;;;-147.86;100.00;16728.30;105518;1257;59640;-53
2024/02/23 03:44:18;;;;;;;38.80;17.80;;;;;;;-147.86;100.00;17032.54;105604;1258;59758;-55
2024/02/23 03:46:46;;;;;;;35.20;16.70;;;;;;;-147.86;100.00;16507.39;105530;1257;73011;-52
2024/02/23 03:49:14;;;;;;;37.70;18.30;;;;;;;-147.86;100.00;16275.61;105529;1263;63110;-54
2024/02/23 03:51:41;;;;;;;34.20;17.70;;;;;;;-147.86;100.00;15960.21;105529;1257;71391;-55
2024/02/23 03:54:09;;;;;;;29.00;16.50;;;;;;;-147.86;100.00;15785.60;105505;1262;59743;-53
2024/02/23 03:56:41;;;;;;;33.90;16.20;;;;;;;-147.86;100.00;15676.33;105574;1258;60024;-55
2024/02/23 03:59:09;;;;;;;33.70;18.10;;;;;;;-147.86;100.00;15830.41;105517;1257;71870;-54
2024/02/23 04:01:39;;;;;;;36.50;17.50;;;;;;;-147.86;100.00;15606.75;105630;1257;66127;-56
2024/02/23 04:04:07;;;;;;;29.60;16.90;;;;;;;-147.86;100.00;15629.70;105616;1263;71394;-52
2024/02/23 04:06:35;;;;;;;31.60;16.30;;;;;;;-147.86;100.00;15577.56;105567;1271;59757;-56
2024/02/23 04:09:04;;;;;;;39.10;19.00;;;;;;;-147.86;100.00;15481.92;105570;1257;59960;-55
2024/02/23 04:11:32;;;;;;;31.60;17.10;;;;;;;-147.86;100.00;15740.88;105560;1263;72991;-54
2024/02/23 04:14:01;;;;;;;41.00;18.00;;;;;;;-147.86;100.00;15568.63;105522;1257;63192;-57
2024/02/23 04:16:29;;;;;;;29.80;15.60;;;;;;;-147.86;100.00;15653.39;105583;1262;72605;-56
2024/02/23 04:18:57;;;;;;;30.60;16.00;;;;;;;-147.86;100.00;15726.09;105488;1257;59888;-52
2024/02/23 04:21:25;;;;;;;36.40;17.40;;;;;;;-147.86;100.00;15829.15;105594;1257;59929;-55
2024/02/23 04:23:53;;;;;;;32.70;16.50;;;;;;;-147.86;100.00;16118.45;105506;1257;71803;-54
2024/02/23 04:26:20;;;;;;;33.80;17.90;;;;;;;-147.86;100.00;16319.13;105568;1257;63511;-57
2024/02/23 04:28:48;;;;;;;35.20;16.80;;;;;;;-147.86;100.00;18690.65;105508;1263;71519;-56
2024/02/23 04:31:16;;;;;;;30.50;16.40;;;;;;;-147.86;100.00;18589.82;105519;1258;59736;-54
2024/02/23 04:33:44;;;;;;;34.50;17.00;;;;;;;-147.86;100.00;17882.45;105542;1257;59615;-54
2024/02/23 04:36:12;;;;;;;33.00;16.40;;;;;;;-147.86;100.00;17490.30;105548;1257;72202;-52
2024/02/23 04:38:39;;;;;;;34.00;18.00;;;;;;;-147.86;100.00;17247.56;105583;1258;63194;-54
2024/02/23 04:41:07;;;;;;;33.30;16.80;;;;;;;-147.86;100.00;17113.35;105545;1262;71767;-57
2024/02/23 04:43:35;;;;;;;42.90;16.80;;;;;;;-147.86;100.00;17012.22;105553;1259;59708;-56
2024/02/23 04:46:03;;;;;;;28.00;15.50;;;;;;;-147.86;100.00;16946.49;105538;1257;60161;-55
2024/02/23 04:48:31;;;;;;;29.90;16.10;;;;;;;-147.86;100.00;17826.46;105562;1263;71825;-58
2024/02/23 04:50:58;;;;;;;31.70;16.80;;;;;;;-147.86;100.00;17287.24;105551;1258;63123;-54
2024/02/23 04:53:26;;;;;;;28.90;15.50;;;;;;;-147.86;100.00;16935.61;105535;1263;71376;-53
2024/02/23 04:55:54;;;;;;;34.40;16.60;;;;;;;-147.86;100.00;16600.35;105579;1257;59749;-52
2024/02/23 04:58:22;;;;;;;26.70;15.20;;;;;;;-147.86;100.00;16368.54;105562;1257;59988;-52
2024/02/23 05:00:49;;;;;;;31.60;15.00;;;;;;;-147.86;100.00;16095.93;105615;1257;71811;-59
2024/02/23 05:03:17;;;;;;;28.80;15.70;;;;;;;-147.86;100.00;15834.99;105573;1257;63092;-50
2024/02/23 05:05:45;;;;;;;28.90;15.50;;;;;;;-147.86;100.00;15524.30;105506;1263;71371;-54
2024/02/23 05:08:13;;;;;;;34.20;16.50;;;;;;;-147.86;100.00;15288.29;105511;1262;60829;-51
2024/02/23 05:10:41;;;;;;;28.70;15.40;;;;;;;-147.86;100.00;15062.78;105598;1263;59547;-55
2024/02/23 05:13:09;;;;;;;27.50;15.20;;;;;;;-147.86;100.00;14852.83;105541;1257;71792;-53
2024/02/23 05:15:36;;;;;;;30.10;15.90;;;;;;;-147.86;100.00;14612.96;105575;1262;64536;-56
2024/02/23 05:18:05;;;;;;;28.00;15.30;;;;;;;-147.86;100.00;14380.88;105518;1261;72655;-56
2024/02/23 05:20:33;;;;;;;31.10;15.90;;;;;;;-147.86;100.00;14292.26;105588;1262;59759;-55
2024/02/23 05:23:01;;;;;;;30.70;15.30;;;;;;;-147.86;100.00;14115.37;105480;1263;59586;-53
2024/02/23 05:25:29;;;;;;;27.60;14.00;;;;;;;-147.86;100.00;14022.86;105552;1262;73039;-54
2024/02/23 05:27:57;;;;;;;29.80;15.00;;;;;;;-147.86;100.00;13894.99;105563;1258;63152;-54
2024/02/23 05:30:27;;;;;;;27.50;15.40;;;;;;;-147.86;100.00;13853.79;105549;1257;72928;-54
2024/02/23 05:32:55;;;;;;;32.90;15.60;;;;;;;-147.86;100.00;13792.39;105551;1262;59746;-57
2024/02/23 05:35:22;;;;;;;28.90;15.90;;;;;;;-147.86;100.00;13717.02;105560;1258;59973;-54
2024/02/23 05:37:51;;;;;;;26.90;14.40;;;;;;;-147.86;100.00;13679.72;105555;1263;72082;-53
2024/02/23 05:40:18;;;;;;;27.60;14.90;;;;;;;-147.86;100.00;13661.87;105598;1263;62154;-52
2024/02/23 05:42:46;;;;;;;28.70;14.80;;;;;;;-147.86;100.00;13628.09;105555;1263;71513;-56
2024/02/23 05:45:15;;;;;;;27.30;14.90;;;;;;;-147.86;100.00;13615.68;105619;1262;59788;-56
2024/02/23 05:47:43;;;;;;;26.20;14.70;;;;;;;-147.86;100.00;13587.74;105561;1259;59752;-55
2024/02/23 05:50:15;;;;;;;25.50;14.10;;;;;;;-147.86;100.00;13534.96;105524;1257;71780;-52
2024/02/23 05:52:42;;;;;;;24.70;14.50;;;;;;;-147.86;100.00;13873.06;105519;1263;63110;-55
2024/02/23 05:55:10;;;;;;;26.70;13.80;;;;;;;-147.86;100.00;14057.29;105531;1263;71306;-55
2024/02/23 05:57:39;;;;;;;31.40;15.80;;;;;;;-147.86;100.00;14248.55;105549;1263;59822;-53
2024/02/23 06:00:10;;;;;;;34.60;14.80;;;;;;;-147.86;100.00;14400.56;105574;1264;59749;-55
2024/02/23 06:02:40;;;;;;;26.60;14.90;;;;;;;-147.86;100.00;14150.85;105539;1257;70797;-54
2024/02/23 06:05:08;;;;;;;26.70;14.30;;;;;;;-147.86;100.00;14816.91;105509;1257;64462;-54
2024/02/23 06:07:37;;;;;;;32.60;15.60;;;;;;;-147.86;100.00;15005.09;105563;1263;71660;-54
2024/02/23 06:10:05;;;;;;;26.00;14.30;;;;;;;-147.86;100.00;14697.60;105558;1263;60530;-55
2024/02/23 06:12:33;;;;;;;28.70;14.20;;;;;;;-147.86;100.00;15131.46;105562;1257;60635;-55
2024/02/23 06:15:00;;;;;;;27.40;14.90;;;;;;;-147.86;100.00;15401.64;105549;1262;72559;-55
2024/02/23 06:17:28;;;;;;;31.90;15.60;;;;;;;-147.86;100.00;15563.01;105515;1257;63323;-55
2024/02/23 06:19:58;;;;;;;28.40;16.10;;;;;;;-147.86;100.00;15855.82;105515;1260;71376;-54
2024/02/23 06:22:27;;;;;;;27.80;14.80;;;;;;;-147.86;100.00;15813.96;105527;1263;60543;-57
2024/02/23 06:24:54;;;;;;;27.70;14.70;;;;;;;-147.86;100.00;16164.99;105573;1262;60367;-56
2024/02/23 06:27:25;;;;;;;41.70;15.90;;;;;;;-147.86;100.00;16248.57;105598;1261;72243;-54
2024/02/23 06:29:52;;;;;;;30.20;16.10;;;;;;;-147.86;100.00;16069.05;105517;1257;63257;-52
2024/02/23 06:32:20;;;;;;;30.70;15.70;;;;;;;-147.86;100.00;16373.81;105548;1262;71762;-54
2024/02/23 06:34:48;;;;;;;28.10;15.50;;;;;;;-147.86;100.00;16242.38;105521;1265;60557;-54
2024/02/23 06:37:16;;;;;;;27.40;16.10;;;;;;;-147.86;100.00;16367.23;105559;1257;60587;-55
2024/02/23 06:39:49;;;;;;;35.10;16.00;;;;;;;-147.86;100.00;16357.93;105581;1257;75877;-53
2024/02/23 06:42:18;;;;;;;30.30;15.50;;;;;;;-147.86;100.00;16068.46;105537;1257;66739;-57
2024/02/23 06:44:46;;;;;;;27.70;15.40;;;;;;;-147.86;100.00;16779.18;105567;1262;73962;-53
2024/02/23 06:47:14;;;;;;;27.10;14.40;;;;;;;-147.86;100.00;16889.59;105557;1262;60530;-51
2024/02/23 06:49:45;;;;;;;31.20;15.60;;;;;;;-147.86;100.00;16748.01;105548;1263;60897;-55
2024/02/23 06:52:13;;;;;;;27.50;14.70;;;;;;;-147.86;100.00;16065.60;105588;1263;73828;-55
2024/02/23 06:54:41;;;;;;;27.10;14.60;;;;;;;-147.86;100.00;16012.99;105595;1262;63533;-55
2024/02/23 06:57:09;;;;;;;32.60;15.60;;;;;;;-147.86;100.00;15648.57;105387;1263;71880;-54
2024/02/23 06:59:37;;;;;;;31.40;15.70;;;;;;;-147.86;100.00;15451.55;105582;1261;60492;-55
2024/02/23 07:02:05;;;;;;;36.90;15.30;;;;;;;-147.86;100.00;15657.16;105564;1260;60379;-55
2024/02/23 07:04:33;;;;;;;28.70;14.10;;;;;;;-147.86;100.00;15911.57;105594;1263;73713;-57
2024/02/23 07:07:07;;;;;;;26.70;15.00;;;;;;;-147.86;100.00;19796.29;105493;1263;65541;-56
2024/02/23 07:09:35;;;;;;;29.10;14.40;;;;;;;-147.86;100.00;22144.83;105247;1263;72142;-53
2024/02/23 07:12:03;;;;;;;27.00;14.80;;;;;;;-147.86;100.00;23403.74;105582;1262;60463;-53
2024/02/23 07:14:31;;;;;;;25.60;14.30;;;;;;;-147.86;100.00;23537.75;105603;1258;60526;-53
2024/02/23 07:19:22;;;;;;;29.50;14.30;;;;;;;-147.86;100.00;28821.36;102645;1294;599478;-54
2024/02/23 07:21:51;;;;;;;30.70;15.30;;;;;;;-147.86;100.00;6385.09;104807;1273;60392;-55
2024/02/23 07:24:19;;;;;;;23.90;13.30;;;;;;;-147.86;100.00;-2138.38;104819;1272;59610;-55
2024/02/23 07:26:46;;;;;;;29.10;15.30;;;;;;;-147.86;100.00;-4742.85;104807;1267;70974;-55
2024/02/23 07:29:14;;;;;;;25.60;13.20;;;;;;;-147.86;100.00;-40.25;104803;1273;65675;-53
2024/02/23 07:31:45;;;;;;;24.20;13.90;;;;;;;-147.86;100.00;3302.81;104763;1267;74966;-52
2024/02/23 07:34:13;;;;;;;24.20;13.50;;;;;;;-147.86;100.00;6178.52;104949;1268;239282;-53
2024/02/23 07:36:43;;;;;;;28.50;14.50;;;;;;;-147.86;100.00;8425.74;105124;1264;59529;-52
2024/02/23 07:39:11;;;;;;;25.30;14.10;;;;;;;-147.86;100.00;9980.46;105101;1263;74824;-55
2024/02/23 07:41:39;;;;;;;23.00;13.60;;;;;;;-147.86;100.00;11307.70;105101;1264;66817;-58
2024/02/23 07:44:08;;;;;;;27.00;13.70;;;;;;;-147.86;100.00;12224.77;105137;1264;72617;-53
2024/02/23 07:46:36;;;;;;;30.70;14.00;;;;;;;-147.86;100.00;12476.11;105155;1264;60505;-54
2024/02/23 07:49:05;;;;;;;30.10;14.30;;;;;;;-147.86;100.00;12796.29;105108;1275;59839;-57
2024/02/23 07:51:33;;;;;;;23.60;13.40;;;;;;;-147.86;100.00;13119.97;105114;1264;73048;-53
2024/02/23 07:54:02;;;;;;;21.90;13.50;;;;;;;-147.86;100.00;13281.57;105068;1264;64835;-54
2024/02/23 07:56:30;;;;;;;32.10;13.90;;;;;;;-147.86;100.00;13532.27;104980;1270;75522;-54
2024/02/23 07:58:58;;;;;;;23.50;13.50;;;;;;;-147.86;100.00;13621.61;104904;1270;62871;-55
2024/02/23 08:01:26;;;;;;;28.30;14.30;;;;;;;-147.86;100.00;13246.18;104903;1270;60411;-55
2024/02/23 08:03:53;;;;;;;27.00;13.30;;;;;;;-147.86;100.00;12527.72;104891;1269;72612;-53
2024/02/23 08:06:21;;;;;;;23.90;13.40;;;;;;;-147.86;100.00;11750.37;104912;1269;66753;-58
2024/02/23 08:08:49;;;;;;;31.00;13.20;;;;;;;-147.86;100.00;10883.06;104886;1263;73562;-55
2024/02/23 08:11:17;;;;;;;25.10;13.20;;;;;;;-147.86;100.00;9498.81;104896;1269;63141;-54
2024/02/23 08:13:45;;;;;;;22.40;13.30;;;;;;;-147.86;100.00;8157.38;104898;1264;60080;-56
2024/02/23 08:16:12;;;;;;;23.50;13.30;;;;;;;-147.86;100.00;7397.61;104959;1269;72658;-56
2024/02/23 08:18:40;;;;;;;24.30;12.80;;;;;;;-147.86;100.00;5754.34;105126;1269;64774;-56
2024/02/23 08:21:09;;;;;;;26.90;14.50;;;;;;;-147.86;100.00;4560.81;105595;1258;73044;-55
2024/02/23 08:23:37;;;;;;;26.60;13.60;;;;;;;-147.86;100.00;3969.21;105578;1257;63155;-55
2024/02/23 08:26:06;;;;;;;25.00;13.10;;;;;;;-147.86;100.00;2121.23;105528;1257;59874;-52
2024/02/23 08:28:33;;;;;;;22.90;13.40;;;;;;;-147.86;100.00;928.07;105570;1263;75222;-55
2024/02/23 08:31:01;;;;;;;25.50;13.70;;;;;;;-147.86;100.00;486.92;105534;1263;64027;-56
2024/02/23 08:33:29;;;;;;;25.20;14.00;;;;;;;-147.86;100.00;380.01;105487;1262;72661;-53
2024/02/23 08:35:56;;;;;;;27.50;14.10;;;;;;;-147.86;100.00;-160.27;105528;1257;59682;-55
2024/02/23 08:38:24;;;;;;;26.90;12.50;;;;;;;-147.86;100.00;-1650.13;105523;1257;61060;-58
2024/02/23 08:40:52;;;;;;;24.70;13.00;;;;;;;-147.86;100.00;-3982.82;105503;1263;72665;-52
2024/02/23 08:43:20;;;;;;;27.00;12.60;;;;;;;-147.86;100.00;-5653.63;105589;1257;65211;-53
2024/02/23 08:45:48;;;;;;;24.60;12.70;;;;;;;-147.86;100.00;-6591.28;105578;1257;72643;-51
2024/02/23 08:48:16;;;;;;;25.60;14.30;;;;;;;-147.86;100.00;-8711.94;105571;1264;59698;-56
2024/02/23 08:50:44;;;;;;;29.10;14.00;;;;;;;-147.86;100.00;-10306.98;105558;1257;59771;-53
2024/02/23 08:53:11;;;;;;;29.90;13.40;;;;;;;-147.86;100.00;-11257.31;105511;1264;73554;-53
2024/02/23 08:55:39;;;;;;;22.00;13.40;;;;;;;-147.86;100.00;-11364.25;105523;1263;64627;-55
2024/02/23 08:58:07;;;;;;;25.00;13.50;;;;;;;-147.86;100.00;-11342.64;105571;1260;72380;-57
2024/02/23 09:00:36;;;;;;;21.20;14.00;;;;;;;-147.86;100.00;-11676.62;105513;1258;60120;-53
2024/02/23 09:03:04;;;;;;;31.40;15.70;;;;;;;-147.86;100.00;-12791.12;105552;1260;59715;-56
2024/02/23 09:05:32;;;;;;;26.70;14.10;;;;;;;-147.86;100.00;-13917.99;105557;1263;74322;-55
2024/02/23 09:08:00;;;;;;;22.90;13.30;;;;;;;-147.86;100.00;-15132.49;105513;1263;64951;-53
2024/02/23 10:00:38;;;;;;;31.80;15.40;;;;;;;-147.86;100.00;-9102.18;102640;1295;600825;-51
2024/02/23 10:03:06;;;;;;;62.00;17.30;;;;;;;-147.86;100.00;-17609.17;104848;1272;60353;-57
2024/02/23 10:05:34;;;;;;;83.40;15.90;;;;;;;-147.86;100.00;-17609.17;104826;1266;61224;-54
2024/02/23 10:08:06;;;;;;;58.80;14.60;;;;;;;-147.86;100.00;-17609.17;104985;1269;72690;-52
2024/02/23 10:10:34;;;;;;;26.20;14.40;;;;;;;-147.86;100.00;-17609.17;104904;1267;63610;-54
2024/02/23 10:13:05;;;;;;;28.60;14.50;;;;;;;-147.86;100.00;-17609.17;104688;1269;252690;-51
2024/02/23 10:15:32;;;;;;;26.80;14.60;;;;;;;-147.86;100.00;-17609.17;105213;1266;59443;-55
2024/02/23 10:18:00;;;;;;;25.00;15.00;;;;;;;-147.86;100.00;-17609.17;105049;1268;59837;-54
2024/02/23 10:20:28;;;;;;;25.90;14.10;;;;;;;-147.86;100.00;-17609.17;105211;1264;71736;-54
2024/02/23 10:22:56;;;;;;;23.50;13.20;;;;;;;-147.86;100.00;-17609.17;105121;1268;66427;-54
2024/02/23 10:25:24;;;;;;;26.00;13.20;;;;;;;-147.86;100.00;-17609.17;105176;1269;74678;-59
2024/02/23 10:27:52;;;;;;;21.60;14.10;;;;;;;-147.86;100.00;-17609.17;105174;1269;59601;-52
2024/02/23 10:30:20;;;;;;;57.00;14.20;;;;;;;-147.86;100.00;-17609.17;105156;1266;61127;-53
2024/02/23 10:32:48;;;;;;;44.70;14.00;;;;;;;-147.86;100.00;-17609.17;105234;1266;72879;-58
2024/02/23 10:35:16;;;;;;;25.20;13.50;;;;;;;-147.86;100.00;-17609.17;105258;1266;65602;-54
2024/02/23 10:37:45;;;;;;;26.00;14.20;;;;;;;-147.86;100.00;-17609.17;105384;1263;73629;-53
2024/02/23 10:40:13;;;;;;;27.40;13.00;;;;;;;-147.86;100.00;-17609.17;105242;1266;60138;-57
2024/02/23 10:42:47;;;;;;;41.00;12.70;;;;;;;-147.86;100.00;-17609.17;105158;1269;59724;-56
2024/02/23 10:45:18;;;;;;;28.50;12.50;;;;;;;-147.86;100.00;-17609.17;105563;1266;74099;-57
2024/02/23 10:47:47;;;;;;;36.90;12.20;;;;;;;-147.86;100.00;-17609.17;105598;1262;64567;-54
2024/02/23 10:50:16;;;;;;;45.30;12.50;;;;;;;-147.86;100.00;-17609.17;105629;1260;72796;-56
2024/02/23 10:52:44;;;;;;;22.90;11.00;;;;;;;-147.86;100.00;-17609.17;105467;1263;62542;-58
2024/02/23 10:55:12;;;;;;;19.40;11.10;;;;;;;-147.86;100.00;-17609.17;105605;1258;60711;-56
2024/02/23 10:57:40;;;;;;;51.80;11.90;;;;;;;-147.86;100.00;-17609.17;105554;1263;73466;-56
2024/02/23 11:00:11;;;;;;;24.00;11.10;;;;;;;-147.86;100.00;-17609.17;105521;1262;63444;-57
2024/02/23 11:02:43;;;;;;;26.00;10.60;;;;;;;-147.86;100.00;-17609.17;105538;1264;72399;-57
2024/02/23 11:05:12;;;;;;;20.30;9.90;;;;;;;-147.86;100.00;-17609.17;105585;1262;62213;-54
2024/02/23 11:07:41;;;;;;;15.90;9.70;;;;;;;-147.86;100.00;-17609.17;105554;1259;59756;-56
2024/02/23 11:10:13;;;;;;;78.00;12.50;;;;;;;-147.86;100.00;-17609.17;105560;1263;72847;-58
2024/02/23 11:12:41;;;;;;;60.60;11.10;;;;;;;-147.86;100.00;-17609.17;105581;1269;66643;-59
2024/02/23 11:15:10;;;;;;;115.20;13.00;;;;;;;-147.86;100.00;-17609.17;105582;1263;73233;-53
2024/02/23 11:17:38;;;;;;;44.40;10.00;;;;;;;-147.86;100.00;-17609.17;105557;1263;61965;-55
2024/02/23 11:20:08;;;;;;;55.90;10.70;;;;;;;-147.86;100.00;-17609.17;105520;1256;59659;-52
2024/02/23 11:22:37;;;;;;;45.30;10.80;;;;;;;-147.86;100.00;-17609.17;105572;1257;73024;-54
2024/02/23 11:25:10;;;;;;;24.20;9.20;;;;;;;-147.86;100.00;-17609.17;105554;1263;64095;-53
2024/02/23 11:27:40;;;;;;;16.90;8.90;;;;;;;-147.86;100.00;-17609.17;105555;1262;73699;-58
2024/02/23 11:30:12;;;;;;;17.10;9.20;;;;;;;-147.86;100.00;-17609.17;105614;1271;61524;-56
2024/02/23 11:32:51;;;;;;;16.00;8.30;;;;;;;-147.86;100.00;-17609.17;105527;1258;62385;-58
2024/02/23 11:35:19;;;;;;;12.00;8.20;;;;;;;-147.86;100.00;-17609.17;105558;1263;75415;-56
2024/02/23 11:38:02;;;;;;;15.00;8.40;;;;;;;-147.86;100.00;-17609.17;105598;1263;64323;-54
2024/02/23 11:40:30;;;;;;;16.30;8.60;;;;;;;-147.86;100.00;-17609.17;105567;1260;72587;-57
2024/02/23 11:43:01;;;;;;;22.10;8.90;;;;;;;-147.86;100.00;-17609.17;105526;1263;59845;-57
2024/02/23 11:45:29;;;;;;;22.70;9.00;;;;;;;-147.86;100.00;-17609.17;105543;1257;61839;-53
2024/02/23 11:47:57;;;;;;;17.60;8.80;;;;;;;-147.86;100.00;-17609.17;105526;1257;74246;-56
2024/02/23 11:50:25;;;;;;;25.60;9.00;;;;;;;-147.86;100.00;-17609.17;105427;1257;64883;-57
2024/02/23 11:52:53;;;;;;;23.20;8.80;;;;;;;-147.86;100.00;-17609.17;105534;1262;73220;-56
2024/02/23 11:55:22;;;;;;;21.20;10.50;;;;;;;-147.86;100.00;-17609.17;105273;1266;62368;-54
2024/02/23 11:57:51;;;;;;;28.80;11.40;;;;;;;-147.86;100.00;-17609.17;105541;1258;61957;-56
2024/02/23 12:00:32;;;;;;;31.00;10.30;;;;;;;-147.86;100.00;-17609.17;105514;1263;73440;-54
2024/02/23 12:03:00;;;;;;;25.50;9.30;;;;;;;-147.86;100.00;-17609.17;105563;1263;63560;-57
2024/02/23 12:05:28;;;;;;;36.80;9.00;;;;;;;-147.86;100.00;-17609.17;105562;1264;74027;-55
2024/02/23 12:07:58;;;;;;;38.50;9.60;;;;;;;-147.86;100.00;-17609.17;105481;1263;62360;-55
2024/02/23 12:10:26;;;;;;;23.20;9.10;;;;;;;-147.86;100.00;-17609.17;105533;1258;61535;-56
2024/02/23 12:12:55;;;;;;;15.90;8.10;;;;;;;-147.86;100.00;-17609.17;105420;1262;74244;-56
2024/02/23 12:15:23;;;;;;;30.60;9.90;;;;;;;-147.86;100.00;-17609.17;105591;1263;66527;-52